sensor_id;sensor_type;location;lat;lon;timestamp;noise_LAeq;noise_LA_min;noise_LA_max;noise_LA01;noise_LA95
61270;Laerm;47150;53.032;8.960;2022-11-15T00:00:25;32.47;31.46;33.53;;
61270;Laerm;47150;53.032;8.960;2022-11-15T00:02:52;32.49;31.27;33.54;;
61270;Laerm;47150;53.032;8.960;2022-11-15T00:05:18;32.53;31.17;33.63;;
61270;Laerm;47150;53.032;8.960;2022-11-15T00:07:43;32.55;31.30;33.75;;
61270;Laerm;47150;53.032;8.960;2022-11-15T00:10:09;32.58;31.40;33.75;;
61270;Laerm;47150;53.032;8.960;2022-11-15T00:12:34;32.55;31.25;33.83;;
61270;Laerm;47150;53.032;8.960;2022-11-15T00:14:59;32.48;31.20;33.57;;
61270;Laerm;47150;53.032;8.960;2022-11-15T00:17:25;32.39;31.12;33.43;;
61270;Laerm;47150;53.032;8.960;2022-11-15T00:19:50;32.32;31.09;33.29;;
61270;Laerm;47150;53.032;8.960;2022-11-15T00:22:16;32.23;31.19;33.51;;
61270;Laerm;47150;53.032;8.960;2022-11-15T00:24:41;32.15;30.90;33.33;;
61270;Laerm;47150;53.032;8.960;2022-11-15T00:27:07;32.11;30.72;33.18;;
61270;Laerm;47150;53.032;8.960;2022-11-15T00:29:33;32.03;30.79;33.28;;
61270;Laerm;47150;53.032;8.960;2022-11-15T00:31:58;31.94;30.79;33.06;;
61270;Laerm;47150;53.032;8.960;2022-11-15T00:34:23;31.89;30.68;33.15;;
61270;Laerm;47150;53.032;8.960;2022-11-15T00:36:49;31.82;30.66;32.83;;
61270;Laerm;47150;53.032;8.960;2022-11-15T00:39:14;31.75;30.34;32.84;;
61270;Laerm;47150;53.032;8.960;2022-11-15T00:41:39;31.69;30.53;32.69;;
61270;Laerm;47150;53.032;8.960;2022-11-15T00:44:05;31.64;30.40;32.83;;
61270;Laerm;47150;53.032;8.960;2022-11-15T00:46:30;31.60;30.39;32.89;;
61270;Laerm;47150;53.032;8.960;2022-11-15T00:48:56;31.54;30.21;32.80;;
61270;Laerm;47150;53.032;8.960;2022-11-15T00:51:21;31.47;30.31;32.53;;
61270;Laerm;47150;53.032;8.960;2022-11-15T00:53:47;31.43;30.16;32.84;;
61270;Laerm;47150;53.032;8.960;2022-11-15T00:56:12;31.42;30.21;32.55;;
61270;Laerm;47150;53.032;8.960;2022-11-15T00:58:37;31.39;30.23;32.59;;
61270;Laerm;47150;53.032;8.960;2022-11-15T01:01:11;31.33;30.29;32.71;;
61270;Laerm;47150;53.032;8.960;2022-11-15T01:03:38;31.26;30.14;32.30;;
61270;Laerm;47150;53.032;8.960;2022-11-15T01:06:05;31.19;29.93;32.28;;
61270;Laerm;47150;53.032;8.960;2022-11-15T01:08:31;31.15;29.86;32.22;;
61270;Laerm;47150;53.032;8.960;2022-11-15T01:11:01;31.06;29.81;32.23;;
61270;Laerm;47150;53.032;8.960;2022-11-15T01:13:29;31.02;29.89;32.10;;
61270;Laerm;47150;53.032;8.960;2022-11-15T01:15:55;30.99;29.69;32.17;;
61270;Laerm;47150;53.032;8.960;2022-11-15T01:18:20;30.94;29.84;32.08;;
61270;Laerm;47150;53.032;8.960;2022-11-15T01:20:45;30.87;29.71;32.03;;
61270;Laerm;47150;53.032;8.960;2022-11-15T01:23:11;30.82;29.62;31.99;;
61270;Laerm;47150;53.032;8.960;2022-11-15T01:25:37;30.78;29.53;31.92;;
61270;Laerm;47150;53.032;8.960;2022-11-15T01:28:02;30.74;29.55;31.83;;
61270;Laerm;47150;53.032;8.960;2022-11-15T01:30:28;30.73;29.51;31.96;;
61270;Laerm;47150;53.032;8.960;2022-11-15T01:32:53;30.72;29.56;31.84;;
61270;Laerm;47150;53.032;8.960;2022-11-15T01:35:18;30.69;29.52;31.91;;
61270;Laerm;47150;53.032;8.960;2022-11-15T01:37:45;30.65;29.52;31.88;;
61270;Laerm;47150;53.032;8.960;2022-11-15T01:40:10;30.64;29.51;31.72;;
61270;Laerm;47150;53.032;8.960;2022-11-15T01:42:36;30.61;29.15;31.84;;
61270;Laerm;47150;53.032;8.960;2022-11-15T01:45:01;30.59;29.49;31.58;;
61270;Laerm;47150;53.032;8.960;2022-11-15T01:47:33;30.60;29.35;31.73;;
61270;Laerm;47150;53.032;8.960;2022-11-15T01:50:03;30.58;29.20;31.75;;
61270;Laerm;47150;53.032;8.960;2022-11-15T01:52:31;30.60;29.38;31.66;;
61270;Laerm;47150;53.032;8.960;2022-11-15T01:57:33;30.70;29.63;31.91;;
61270;Laerm;47150;53.032;8.960;2022-11-15T02:00:00;30.83;29.75;32.10;;
61270;Laerm;47150;53.032;8.960;2022-11-15T02:02:25;30.96;29.76;32.13;;
61270;Laerm;47150;53.032;8.960;2022-11-15T02:04:51;31.12;29.94;32.26;;
61270;Laerm;47150;53.032;8.960;2022-11-15T02:07:18;31.30;30.13;32.58;;
61270;Laerm;47150;53.032;8.960;2022-11-15T02:09:46;31.48;30.30;32.71;;
61270;Laerm;47150;53.032;8.960;2022-11-15T02:12:15;31.67;30.44;32.81;;
61270;Laerm;47150;53.032;8.960;2022-11-15T02:14:42;31.86;30.64;32.99;;
61270;Laerm;47150;53.032;8.960;2022-11-15T02:23:18;32.29;31.07;33.49;;
61270;Laerm;47150;53.032;8.960;2022-11-15T02:36:21;32.53;31.26;33.85;;
61270;Laerm;47150;53.032;8.960;2022-11-15T02:39:11;32.57;31.29;33.64;;
61270;Laerm;47150;53.032;8.960;2022-11-15T02:41:53;32.63;31.45;33.74;;
61270;Laerm;47150;53.032;8.960;2022-11-15T02:44:36;32.71;31.58;33.86;;
61270;Laerm;47150;53.032;8.960;2022-11-15T02:47:05;32.74;31.61;33.96;;
61270;Laerm;47150;53.032;8.960;2022-11-15T02:49:41;32.78;31.56;33.93;;
61270;Laerm;47150;53.032;8.960;2022-11-15T02:52:37;32.84;31.62;33.95;;
61270;Laerm;47150;53.032;8.960;2022-11-15T02:55:03;32.84;31.67;34.03;;
61270;Laerm;47150;53.032;8.960;2022-11-15T03:00:02;32.75;31.56;33.90;;
61270;Laerm;47150;53.032;8.960;2022-11-15T03:05:19;32.83;31.73;33.89;;
61270;Laerm;47150;53.032;8.960;2022-11-15T03:08:00;32.86;31.66;34.07;;
61270;Laerm;47150;53.032;8.960;2022-11-15T03:11:03;32.78;31.44;33.83;;
61270;Laerm;47150;53.032;8.960;2022-11-15T03:13:35;32.75;31.64;33.81;;
61270;Laerm;47150;53.032;8.960;2022-11-15T03:16:03;32.72;31.33;33.96;;
61270;Laerm;47150;53.032;8.960;2022-11-15T03:18:37;32.74;31.64;33.78;;
61270;Laerm;47150;53.032;8.960;2022-11-15T03:21:06;32.72;31.45;33.73;;
61270;Laerm;47150;53.032;8.960;2022-11-15T03:23:33;32.69;31.57;33.62;;
61270;Laerm;47150;53.032;8.960;2022-11-15T03:26:00;32.68;31.42;33.86;;
61270;Laerm;47150;53.032;8.960;2022-11-15T03:28:37;32.66;31.54;33.76;;
61270;Laerm;47150;53.032;8.960;2022-11-15T03:31:04;32.66;31.49;33.83;;
61270;Laerm;47150;53.032;8.960;2022-11-15T03:33:53;32.69;31.27;33.93;;
61270;Laerm;47150;53.032;8.960;2022-11-15T03:36:21;32.68;31.56;33.69;;
61270;Laerm;47150;53.032;8.960;2022-11-15T03:38:48;32.68;31.51;33.84;;
61270;Laerm;47150;53.032;8.960;2022-11-15T03:41:24;32.68;31.47;33.97;;
61270;Laerm;47150;53.032;8.960;2022-11-15T03:43:57;32.73;31.45;33.93;;
61270;Laerm;47150;53.032;8.960;2022-11-15T03:46:40;32.73;31.42;33.87;;
61270;Laerm;47150;53.032;8.960;2022-11-15T03:49:13;32.71;31.57;33.77;;
61270;Laerm;47150;53.032;8.960;2022-11-15T03:51:40;32.74;31.28;33.89;;
61270;Laerm;47150;53.032;8.960;2022-11-15T03:54:06;32.73;31.61;34.05;;
61270;Laerm;47150;53.032;8.960;2022-11-15T03:56:31;32.75;31.54;33.82;;
61270;Laerm;47150;53.032;8.960;2022-11-15T03:58:57;32.76;31.48;33.80;;
61270;Laerm;47150;53.032;8.960;2022-11-15T04:01:22;32.81;31.57;34.02;;
61270;Laerm;47150;53.032;8.960;2022-11-15T04:03:48;32.82;31.51;34.04;;
61270;Laerm;47150;53.032;8.960;2022-11-15T04:06:13;32.88;31.76;34.04;;
61270;Laerm;47150;53.032;8.960;2022-11-15T04:08:39;32.89;31.68;33.94;;
61270;Laerm;47150;53.032;8.960;2022-11-15T04:11:04;32.89;31.76;34.04;;
61270;Laerm;47150;53.032;8.960;2022-11-15T04:13:29;32.91;31.89;34.16;;
61270;Laerm;47150;53.032;8.960;2022-11-15T04:15:55;32.92;31.65;34.00;;
61270;Laerm;47150;53.032;8.960;2022-11-15T04:18:20;32.99;31.60;34.15;;
61270;Laerm;47150;53.032;8.960;2022-11-15T04:20:46;33.00;31.71;34.03;;
61270;Laerm;47150;53.032;8.960;2022-11-15T04:23:29;32.99;31.60;34.29;;
61270;Laerm;47150;53.032;8.960;2022-11-15T04:26:18;32.99;31.84;33.98;;
61270;Laerm;47150;53.032;8.960;2022-11-15T04:28:44;33.02;31.75;34.29;;
61270;Laerm;47150;53.032;8.960;2022-11-15T04:31:29;33.05;31.68;34.31;;
61270;Laerm;47150;53.032;8.960;2022-11-15T04:33:54;33.10;31.82;34.19;;
61270;Laerm;47150;53.032;8.960;2022-11-15T04:36:20;33.15;32.02;34.16;;
61270;Laerm;47150;53.032;8.960;2022-11-15T04:39:04;33.15;31.93;34.23;;
61270;Laerm;47150;53.032;8.960;2022-11-15T04:44:04;33.20;31.97;34.30;;
61270;Laerm;47150;53.032;8.960;2022-11-15T04:46:30;33.26;32.02;34.46;;
61270;Laerm;47150;53.032;8.960;2022-11-15T04:48:55;33.30;32.15;34.35;;
61270;Laerm;47150;53.032;8.960;2022-11-15T04:51:20;33.30;31.99;34.47;;
61270;Laerm;47150;53.032;8.960;2022-11-15T04:53:46;33.36;32.15;34.65;;
61270;Laerm;47150;53.032;8.960;2022-11-15T04:56:11;33.38;32.18;34.50;;
61270;Laerm;47150;53.032;8.960;2022-11-15T04:58:37;33.42;32.18;34.60;;
61270;Laerm;47150;53.032;8.960;2022-11-15T05:01:12;33.40;31.91;34.51;;
61270;Laerm;47150;53.032;8.960;2022-11-15T05:03:39;33.45;32.17;34.61;;
61270;Laerm;47150;53.032;8.960;2022-11-15T05:06:23;33.45;32.32;34.53;;
61270;Laerm;47150;53.032;8.960;2022-11-15T05:08:48;33.46;32.37;34.46;;
61270;Laerm;47150;53.032;8.960;2022-11-15T05:11:14;33.46;32.10;34.56;;
61270;Laerm;47150;53.032;8.960;2022-11-15T05:13:39;33.45;32.26;34.63;;
61270;Laerm;47150;53.032;8.960;2022-11-15T05:16:05;33.43;32.28;34.54;;
61270;Laerm;47150;53.032;8.960;2022-11-15T05:18:30;33.43;32.24;34.49;;
61270;Laerm;47150;53.032;8.960;2022-11-15T05:20:55;33.40;32.32;34.67;;
61270;Laerm;47150;53.032;8.960;2022-11-15T05:23:21;33.42;32.25;34.51;;
61270;Laerm;47150;53.032;8.960;2022-11-15T05:25:46;33.44;32.28;34.59;;
61270;Laerm;47150;53.032;8.960;2022-11-15T05:28:12;33.48;32.39;34.60;;
61270;Laerm;47150;53.032;8.960;2022-11-15T05:30:37;33.49;32.04;34.51;;
61270;Laerm;47150;53.032;8.960;2022-11-15T05:33:03;33.48;32.39;34.58;;
61270;Laerm;47150;53.032;8.960;2022-11-15T05:35:35;33.42;32.14;34.56;;
61270;Laerm;47150;53.032;8.960;2022-11-15T05:38:04;33.39;32.20;34.48;;
61270;Laerm;47150;53.032;8.960;2022-11-15T05:40:30;33.40;32.24;34.54;;
61270;Laerm;47150;53.032;8.960;2022-11-15T05:42:56;33.39;32.23;34.61;;
61270;Laerm;47150;53.032;8.960;2022-11-15T05:45:22;33.33;31.99;34.52;;
61270;Laerm;47150;53.032;8.960;2022-11-15T05:47:48;33.25;31.91;34.35;;
61270;Laerm;47150;53.032;8.960;2022-11-15T05:50:16;33.19;31.94;34.30;;
61270;Laerm;47150;53.032;8.960;2022-11-15T05:52:43;33.14;31.90;34.26;;
61270;Laerm;47150;53.032;8.960;2022-11-15T05:55:10;33.15;32.05;34.38;;
61270;Laerm;47150;53.032;8.960;2022-11-15T05:57:36;33.17;32.13;34.31;;
61270;Laerm;47150;53.032;8.960;2022-11-15T06:00:02;33.20;31.88;34.28;;
61270;Laerm;47150;53.032;8.960;2022-11-15T06:02:28;33.23;31.70;34.39;;
61270;Laerm;47150;53.032;8.960;2022-11-15T06:04:53;33.26;31.87;34.27;;
61270;Laerm;47150;53.032;8.960;2022-11-15T06:07:18;33.27;32.06;34.27;;
61270;Laerm;47150;53.032;8.960;2022-11-15T06:09:44;33.30;31.97;34.40;;
61270;Laerm;47150;53.032;8.960;2022-11-15T06:12:09;33.31;32.30;34.42;;
61270;Laerm;47150;53.032;8.960;2022-11-15T06:14:34;33.33;32.20;34.67;;
61270;Laerm;47150;53.032;8.960;2022-11-15T06:17:00;33.33;32.29;34.31;;
61270;Laerm;47150;53.032;8.960;2022-11-15T06:19:25;33.27;32.14;34.35;;
61270;Laerm;47150;53.032;8.960;2022-11-15T06:21:50;33.18;32.09;34.25;;
61270;Laerm;47150;53.032;8.960;2022-11-15T06:24:16;33.16;31.91;34.27;;
61270;Laerm;47150;53.032;8.960;2022-11-15T06:26:41;33.14;31.98;34.32;;
61270;Laerm;47150;53.032;8.960;2022-11-15T06:29:07;33.14;31.99;34.29;;
61270;Laerm;47150;53.032;8.960;2022-11-15T06:31:33;33.12;31.94;34.21;;
61270;Laerm;47150;53.032;8.960;2022-11-15T06:33:59;33.12;31.94;34.18;;
61270;Laerm;47150;53.032;8.960;2022-11-15T06:36:24;33.13;31.89;34.30;;
61270;Laerm;47150;53.032;8.960;2022-11-15T06:38:50;33.14;31.92;34.17;;
61270;Laerm;47150;53.032;8.960;2022-11-15T06:41:16;33.14;31.95;34.27;;
61270;Laerm;47150;53.032;8.960;2022-11-15T06:43:42;33.08;31.91;34.15;;
61270;Laerm;47150;53.032;8.960;2022-11-15T06:46:07;33.00;31.95;34.15;;
61270;Laerm;47150;53.032;8.960;2022-11-15T06:48:33;32.94;31.69;34.17;;
61270;Laerm;47150;53.032;8.960;2022-11-15T06:51:00;32.86;31.57;33.88;;
61270;Laerm;47150;53.032;8.960;2022-11-15T06:53:27;32.78;31.53;33.82;;
61270;Laerm;47150;53.032;8.960;2022-11-15T06:55:53;32.71;31.51;33.90;;
61270;Laerm;47150;53.032;8.960;2022-11-15T06:58:20;32.61;31.47;33.71;;
61270;Laerm;47150;53.032;8.960;2022-11-15T07:00:46;32.48;31.29;33.55;;
61270;Laerm;47150;53.032;8.960;2022-11-15T07:03:11;32.34;31.02;33.68;;
61270;Laerm;47150;53.032;8.960;2022-11-15T07:05:37;32.30;30.94;33.47;;
61270;Laerm;47150;53.032;8.960;2022-11-15T07:08:02;32.26;31.04;33.40;;
61270;Laerm;47150;53.032;8.960;2022-11-15T07:10:28;32.22;30.99;33.49;;
61270;Laerm;47150;53.032;8.960;2022-11-15T07:12:55;32.16;30.71;33.33;;
61270;Laerm;47150;53.032;8.960;2022-11-15T07:15:22;32.16;30.81;33.25;;
61270;Laerm;47150;53.032;8.960;2022-11-15T07:17:48;32.14;31.02;33.50;;
61270;Laerm;47150;53.032;8.960;2022-11-15T07:20:14;32.16;30.97;33.19;;
61270;Laerm;47150;53.032;8.960;2022-11-15T07:22:40;32.16;30.91;33.18;;
61270;Laerm;47150;53.032;8.960;2022-11-15T07:25:06;32.20;31.01;33.29;;
61270;Laerm;47150;53.032;8.960;2022-11-15T07:27:31;32.27;31.07;33.45;;
61270;Laerm;47150;53.032;8.960;2022-11-15T07:29:57;32.33;31.23;33.52;;
61270;Laerm;47150;53.032;8.960;2022-11-15T07:32:22;32.39;31.11;33.59;;
61270;Laerm;47150;53.032;8.960;2022-11-15T07:34:47;32.45;31.30;33.76;;
61270;Laerm;47150;53.032;8.960;2022-11-15T07:37:13;32.51;31.40;33.63;;
61270;Laerm;47150;53.032;8.960;2022-11-15T07:39:38;32.61;31.46;33.93;;
61270;Laerm;47150;53.032;8.960;2022-11-15T07:42:03;32.69;31.58;33.72;;
61270;Laerm;47150;53.032;8.960;2022-11-15T07:44:47;32.78;31.47;33.83;;
61270;Laerm;47150;53.032;8.960;2022-11-15T07:47:12;32.87;31.54;33.84;;
61270;Laerm;47150;53.032;8.960;2022-11-15T07:49:38;32.97;31.66;34.17;;
61270;Laerm;47150;53.032;8.960;2022-11-15T07:52:03;33.08;31.89;34.26;;
61270;Laerm;47150;53.032;8.960;2022-11-15T07:54:29;33.27;31.86;34.45;;
61270;Laerm;47150;53.032;8.960;2022-11-15T07:56:54;33.38;32.10;34.58;;
61270;Laerm;47150;53.032;8.960;2022-11-15T07:59:20;33.45;32.16;34.76;;
61270;Laerm;47150;53.032;8.960;2022-11-15T08:01:45;33.62;32.56;34.71;;
61270;Laerm;47150;53.032;8.960;2022-11-15T08:04:11;33.69;32.50;34.82;;
61270;Laerm;47150;53.032;8.960;2022-11-15T08:06:36;33.85;32.50;34.90;;
61270;Laerm;47150;53.032;8.960;2022-11-15T08:09:02;34.02;32.75;35.08;;
61270;Laerm;47150;53.032;8.960;2022-11-15T08:11:27;34.18;33.00;35.31;;
61270;Laerm;47150;53.032;8.960;2022-11-15T08:13:53;34.35;32.64;35.50;;
61270;Laerm;47150;53.032;8.960;2022-11-15T08:16:18;34.46;33.27;35.62;;
61270;Laerm;47150;53.032;8.960;2022-11-15T08:18:43;34.55;33.35;35.76;;
61270;Laerm;47150;53.032;8.960;2022-11-15T08:21:09;34.70;33.58;35.75;;
61270;Laerm;47150;53.032;8.960;2022-11-15T08:23:35;34.76;33.57;35.80;;
61270;Laerm;47150;53.032;8.960;2022-11-15T08:26:02;34.83;33.75;36.03;;
61270;Laerm;47150;53.032;8.960;2022-11-15T08:28:29;34.93;33.74;36.09;;
61270;Laerm;47150;53.032;8.960;2022-11-15T08:30:54;35.05;33.89;36.38;;
61270;Laerm;47150;53.032;8.960;2022-11-15T08:33:19;35.13;33.93;36.18;;
61270;Laerm;47150;53.032;8.960;2022-11-15T08:35:45;35.17;33.91;36.38;;
61270;Laerm;47150;53.032;8.960;2022-11-15T08:38:11;35.19;33.99;36.32;;
61270;Laerm;47150;53.032;8.960;2022-11-15T08:40:36;35.23;33.89;36.43;;
61270;Laerm;47150;53.032;8.960;2022-11-15T08:43:02;35.28;34.05;36.37;;
61270;Laerm;47150;53.032;8.960;2022-11-15T08:45:29;35.30;33.88;36.56;;
61270;Laerm;47150;53.032;8.960;2022-11-15T08:47:55;35.38;34.16;36.45;;
61270;Laerm;47150;53.032;8.960;2022-11-15T08:50:20;35.42;34.12;36.67;;
61270;Laerm;47150;53.032;8.960;2022-11-15T08:52:46;35.45;34.08;36.78;;
61270;Laerm;47150;53.032;8.960;2022-11-15T08:55:13;35.45;34.15;36.70;;
61270;Laerm;47150;53.032;8.960;2022-11-15T08:57:38;35.44;34.26;36.75;;
61270;Laerm;47150;53.032;8.960;2022-11-15T09:00:04;35.39;34.10;36.47;;
61270;Laerm;47150;53.032;8.960;2022-11-15T09:02:30;35.36;34.07;36.64;;
61270;Laerm;47150;53.032;8.960;2022-11-15T09:04:55;35.36;34.06;36.48;;
61270;Laerm;47150;53.032;8.960;2022-11-15T09:07:20;35.36;33.92;36.56;;
61270;Laerm;47150;53.032;8.960;2022-11-15T09:09:46;35.36;34.26;36.55;;
61270;Laerm;47150;53.032;8.960;2022-11-15T09:12:11;35.37;34.08;36.51;;
61270;Laerm;47150;53.032;8.960;2022-11-15T09:14:37;35.34;34.22;36.44;;
61270;Laerm;47150;53.032;8.960;2022-11-15T09:17:02;35.34;34.17;36.40;;
61270;Laerm;47150;53.032;8.960;2022-11-15T09:19:28;35.34;33.91;36.63;;
61270;Laerm;47150;53.032;8.960;2022-11-15T09:21:53;35.33;34.21;36.52;;
61270;Laerm;47150;53.032;8.960;2022-11-15T09:24:19;35.31;34.15;36.57;;
61270;Laerm;47150;53.032;8.960;2022-11-15T09:26:44;35.32;34.15;36.48;;
61270;Laerm;47150;53.032;8.960;2022-11-15T09:29:10;35.29;34.04;36.59;;
61270;Laerm;47150;53.032;8.960;2022-11-15T09:31:35;35.32;34.10;36.38;;
61270;Laerm;47150;53.032;8.960;2022-11-15T09:34:01;35.29;34.19;36.36;;
61270;Laerm;47150;53.032;8.960;2022-11-15T09:36:26;35.33;34.20;36.49;;
61270;Laerm;47150;53.032;8.960;2022-11-15T09:38:51;35.33;34.04;36.73;;
61270;Laerm;47150;53.032;8.960;2022-11-15T09:49:25;35.50;34.42;36.86;;
61270;Laerm;47150;53.032;8.960;2022-11-15T09:51:53;35.64;34.34;36.84;;
61270;Laerm;47150;53.032;8.960;2022-11-15T09:56:55;35.98;34.61;37.11;;
61270;Laerm;47150;53.032;8.960;2022-11-15T10:05:04;36.30;34.77;37.65;;
61270;Laerm;47150;53.032;8.960;2022-11-15T10:07:48;36.40;35.04;37.57;;
61270;Laerm;47150;53.032;8.960;2022-11-15T10:10:25;36.48;35.14;37.74;;
61270;Laerm;47150;53.032;8.960;2022-11-15T10:12:53;36.49;35.11;37.70;;
61270;Laerm;47150;53.032;8.960;2022-11-15T10:15:19;36.48;35.26;37.68;;
61270;Laerm;47150;53.032;8.960;2022-11-15T10:20:30;36.85;35.53;38.22;;
61270;Laerm;47150;53.032;8.960;2022-11-15T10:23:04;37.02;35.67;38.30;;
61270;Laerm;47150;53.032;8.960;2022-11-15T10:25:32;37.07;35.84;38.22;;
61270;Laerm;47150;53.032;8.960;2022-11-15T10:28:01;36.96;35.73;38.45;;
61270;Laerm;47150;53.032;8.960;2022-11-15T10:30:40;36.80;35.40;38.23;;
61270;Laerm;47150;53.032;8.960;2022-11-15T10:33:13;36.68;35.45;37.93;;
61270;Laerm;47150;53.032;8.960;2022-11-15T10:35:42;36.57;35.10;37.71;;
61270;Laerm;47150;53.032;8.960;2022-11-15T10:38:10;36.51;35.09;37.66;;
61270;Laerm;47150;53.032;8.960;2022-11-15T10:40:37;36.46;35.19;37.56;;
61270;Laerm;47150;53.032;8.960;2022-11-15T10:43:12;36.41;35.15;37.66;;
61270;Laerm;47150;53.032;8.960;2022-11-15T10:45:38;36.37;35.07;37.53;;
61270;Laerm;47150;53.032;8.960;2022-11-15T10:50:44;36.30;35.09;37.55;;
61270;Laerm;47150;53.032;8.960;2022-11-15T10:53:20;36.31;34.84;37.64;;
61270;Laerm;47150;53.032;8.960;2022-11-15T10:55:47;36.30;34.90;37.45;;
61270;Laerm;47150;53.032;8.960;2022-11-15T11:00:55;36.34;35.03;37.68;;
61270;Laerm;47150;53.032;8.960;2022-11-15T11:03:34;36.34;35.07;37.44;;
61270;Laerm;47150;53.032;8.960;2022-11-15T11:06:18;36.36;35.11;37.55;;
61270;Laerm;47150;53.032;8.960;2022-11-15T11:08:55;36.39;35.22;37.59;;
61270;Laerm;47150;53.032;8.960;2022-11-15T11:11:21;36.41;35.04;37.84;;
61270;Laerm;47150;53.032;8.960;2022-11-15T11:13:47;36.46;35.15;37.66;;
61270;Laerm;47150;53.032;8.960;2022-11-15T11:16:37;36.54;35.01;37.64;;
61270;Laerm;47150;53.032;8.960;2022-11-15T11:24:44;36.58;35.34;37.81;;
61270;Laerm;47150;53.032;8.960;2022-11-15T11:27:26;36.59;35.33;37.92;;
61270;Laerm;47150;53.032;8.960;2022-11-15T11:30:41;36.65;35.33;37.80;;
61270;Laerm;47150;53.032;8.960;2022-11-15T11:33:17;36.68;35.31;37.92;;
61270;Laerm;47150;53.032;8.960;2022-11-15T11:36:03;36.74;35.42;37.91;;
61270;Laerm;47150;53.032;8.960;2022-11-15T11:38:39;36.92;35.63;38.41;;
61270;Laerm;47150;53.032;8.960;2022-11-15T11:49:37;37.29;36.16;38.65;;
61270;Laerm;47150;53.032;8.960;2022-11-15T11:54:38;37.22;36.04;38.29;;
61270;Laerm;47150;53.032;8.960;2022-11-15T11:57:12;37.20;35.94;38.30;;
61270;Laerm;47150;53.032;8.960;2022-11-15T11:59:43;37.18;35.92;38.38;;
61270;Laerm;47150;53.032;8.960;2022-11-15T12:02:37;37.17;35.78;38.39;;
61270;Laerm;47150;53.032;8.960;2022-11-15T12:07:54;37.21;35.86;38.36;;
61270;Laerm;47150;53.032;8.960;2022-11-15T12:10:29;37.24;35.89;38.28;;
61270;Laerm;47150;53.032;8.960;2022-11-15T12:13:06;37.23;35.74;38.46;;
61270;Laerm;47150;53.032;8.960;2022-11-15T12:15:45;37.23;35.87;38.38;;
61270;Laerm;47150;53.032;8.960;2022-11-15T12:18:15;37.20;36.02;38.47;;
61270;Laerm;47150;53.032;8.960;2022-11-15T12:20:51;37.18;35.95;38.37;;
61270;Laerm;47150;53.032;8.960;2022-11-15T12:23:22;37.15;36.00;38.40;;
61270;Laerm;47150;53.032;8.960;2022-11-15T12:28:45;37.04;35.49;38.21;;
61270;Laerm;47150;53.032;8.960;2022-11-15T12:31:28;36.98;35.91;38.15;;
61270;Laerm;47150;53.032;8.960;2022-11-15T12:33:58;36.94;35.42;38.00;;
61270;Laerm;47150;53.032;8.960;2022-11-15T12:38:58;37.07;35.55;38.23;;
61270;Laerm;47150;53.032;8.960;2022-11-15T12:41:29;37.16;35.85;38.44;;
61270;Laerm;47150;53.032;8.960;2022-11-15T12:43:56;37.17;35.82;38.49;;
61270;Laerm;47150;53.032;8.960;2022-11-15T12:59:50;37.36;36.04;38.65;;
61270;Laerm;47150;53.032;8.960;2022-11-15T13:17:42;37.45;36.23;38.58;;
61270;Laerm;47150;53.032;8.960;2022-11-15T13:22:40;37.45;36.05;38.61;;
61270;Laerm;47150;53.032;8.960;2022-11-15T13:28:48;37.53;36.27;42.28;;
61270;Laerm;47150;53.032;8.960;2022-11-15T13:30:54;37.57;36.20;38.77;;
61270;Laerm;47150;53.032;8.960;2022-11-15T13:33:25;37.60;36.29;38.86;;
61270;Laerm;47150;53.032;8.960;2022-11-15T13:35:56;37.64;36.29;40.14;;
61270;Laerm;47150;53.032;8.960;2022-11-15T13:38:28;37.66;36.40;38.96;;
61270;Laerm;47150;53.032;8.960;2022-11-15T13:40:55;37.68;36.41;38.93;;
61270;Laerm;47150;53.032;8.960;2022-11-15T13:46:06;37.67;36.29;38.92;;
61270;Laerm;47150;53.032;8.960;2022-11-15T13:48:32;37.69;36.34;38.95;;
61270;Laerm;47150;53.032;8.960;2022-11-15T13:50:59;37.70;36.30;39.13;;
61270;Laerm;47150;53.032;8.960;2022-11-15T13:53:25;37.71;36.34;38.83;;
61270;Laerm;47150;53.032;8.960;2022-11-15T13:55:52;37.70;36.43;39.10;;
61270;Laerm;47150;53.032;8.960;2022-11-15T13:58:19;37.70;36.17;38.95;;
61270;Laerm;47150;53.032;8.960;2022-11-15T14:00:45;37.70;36.35;39.02;;
61270;Laerm;47150;53.032;8.960;2022-11-15T14:03:19;37.70;36.30;39.04;;
61270;Laerm;47150;53.032;8.960;2022-11-15T14:06:08;37.71;36.60;38.90;;
61270;Laerm;47150;53.032;8.960;2022-11-15T14:08:37;37.73;36.43;38.91;;
61270;Laerm;47150;53.032;8.960;2022-11-15T14:13:35;37.74;36.36;38.94;;
61270;Laerm;47150;53.032;8.960;2022-11-15T14:16:18;37.74;36.45;38.94;;
61270;Laerm;47150;53.032;8.960;2022-11-15T14:21:12;37.75;36.30;38.89;;
61270;Laerm;47150;53.032;8.960;2022-11-15T14:23:38;37.75;36.39;39.04;;
61270;Laerm;47150;53.032;8.960;2022-11-15T14:26:03;37.74;36.44;38.88;;
61270;Laerm;47150;53.032;8.960;2022-11-15T14:28:33;37.73;36.34;38.82;;
61270;Laerm;47150;53.032;8.960;2022-11-15T14:31:10;37.71;36.46;39.04;;
61270;Laerm;47150;53.032;8.960;2022-11-15T14:33:37;37.69;36.28;38.81;;
61270;Laerm;47150;53.032;8.960;2022-11-15T14:36:16;37.68;36.56;39.16;;
61270;Laerm;47150;53.032;8.960;2022-11-15T14:38:42;37.66;36.41;39.09;;
61270;Laerm;47150;53.032;8.960;2022-11-15T14:41:22;37.63;36.44;38.98;;
61270;Laerm;47150;53.032;8.960;2022-11-15T14:43:49;37.59;36.10;38.86;;
61270;Laerm;47150;53.032;8.960;2022-11-15T14:46:14;37.54;36.38;38.73;;
61270;Laerm;47150;53.032;8.960;2022-11-15T14:48:40;37.47;36.26;38.74;;
61270;Laerm;47150;53.032;8.960;2022-11-15T14:51:11;37.41;35.68;38.45;;
61270;Laerm;47150;53.032;8.960;2022-11-15T14:53:38;37.35;36.04;38.54;;
61270;Laerm;47150;53.032;8.960;2022-11-15T14:56:04;37.27;35.86;38.42;;
61270;Laerm;47150;53.032;8.960;2022-11-15T14:58:29;37.16;35.86;38.32;;
61270;Laerm;47150;53.032;8.960;2022-11-15T15:00:55;37.07;35.95;38.17;;
61270;Laerm;47150;53.032;8.960;2022-11-15T15:03:20;36.95;35.65;38.02;;
61270;Laerm;47150;53.032;8.960;2022-11-15T15:05:48;36.82;35.62;38.21;;
61270;Laerm;47150;53.032;8.960;2022-11-15T15:08:14;36.71;35.33;37.95;;
61270;Laerm;47150;53.032;8.960;2022-11-15T15:10:44;36.56;35.21;37.68;;
61270;Laerm;47150;53.032;8.960;2022-11-15T15:13:19;36.39;35.22;37.55;;
61270;Laerm;47150;53.032;8.960;2022-11-15T15:15:45;36.20;34.88;37.29;;
61270;Laerm;47150;53.032;8.960;2022-11-15T15:18:11;36.09;34.58;37.26;;
61270;Laerm;47150;53.032;8.960;2022-11-15T15:20:39;35.95;34.73;37.11;;
61270;Laerm;47150;53.032;8.960;2022-11-15T15:23:05;35.83;34.40;37.12;;
61270;Laerm;47150;53.032;8.960;2022-11-15T15:25:33;35.72;34.52;36.82;;
61270;Laerm;47150;53.032;8.960;2022-11-15T15:27:58;35.63;34.41;36.81;;
61270;Laerm;47150;53.032;8.960;2022-11-15T15:30:26;35.54;34.36;36.79;;
61270;Laerm;47150;53.032;8.960;2022-11-15T15:32:52;35.44;33.73;36.61;;
61270;Laerm;47150;53.032;8.960;2022-11-15T15:35:18;35.34;33.82;36.83;;
61270;Laerm;47150;53.032;8.960;2022-11-15T15:37:45;35.25;34.04;36.55;;
61270;Laerm;47150;53.032;8.960;2022-11-15T15:40:14;35.14;33.56;36.31;;
61270;Laerm;47150;53.032;8.960;2022-11-15T15:42:40;35.08;33.84;36.20;;
61270;Laerm;47150;53.032;8.960;2022-11-15T15:45:07;35.02;33.90;36.33;;
61270;Laerm;47150;53.032;8.960;2022-11-15T15:47:33;34.99;33.73;36.24;;
61270;Laerm;47150;53.032;8.960;2022-11-15T15:49:58;35.00;33.60;36.49;;